Date,TemperatureHighF,TemperatureAvgF,TemperatureLowF,DewpointHighF,DewpointAvgF,DewpointLowF,HumidityHigh,HumidityAvg,HumidityLow,PressureMaxIn,PressureMinIn,WindSpeedMaxMPH,WindSpeedAvgMPH,GustSpeedMaxMPH,PrecipitationSumIn
2013-2-1,65.7,51.1,45.0,49.4,44.1,39.3,91,78,46,30.25,30.13,13,5,0,0.00
2013-2-2,59.0,50.3,44.6,49.5,45.1,41.0,91,83,64,30.29,30.22,10,4,0,0.00
2013-2-3,59.4,50.5,45.0,45.6,43.2,40.4,87,77,55,30.27,30.14,10,5,0,0.00
2013-2-4,61.0,48.5,41.7,49.2,43.3,37.8,88,83,62,30.19,30.06,10,5,0,0.00
2013-2-5,56.1,50.0,46.0,45.7,42.9,41.0,87,77,63,30.17,30.08,13,5,0,0.00
2013-2-6,59.0,49.2,39.9,46.2,40.8,35.8,86,73,57,30.21,30.13,12,6,0,0.00
2013-2-7,55.8,47.4,40.5,45.5,39.3,35.3,84,74,54,30.20,30.03,17,6,0,0.09
2013-2-8,43.3,42.3,41.9,39.1,38.4,38.0,87,86,85,30.03,29.99,9,5,0,0.00
2013-2-14,67.3,57.7,52.7,48.3,43.9,38.6,77,61,44,30.21,30.14,9,4,0,0.00
2013-2-15,74.1,59.1,48.0,44.1,38.8,32.2,70,49,22,30.26,30.18,15,6,0,0.00
2013-2-16,71.8,57.6,48.0,50.0,40.8,33.0,89,56,24,30.21,30.04,14,5,0,0.00
2013-2-17,59.0,50.6,42.6,47.5,43.9,40.2,92,79,58,30.08,29.98,12,4,0,0.00
2013-2-18,52.0,47.9,43.3,42.2,39.5,35.3,89,73,56,30.08,30.00,15,6,0,0.00
2013-2-19,50.4,45.7,39.7,45.2,38.4,33.7,89,76,58,30.01,29.78,55,6,0,0.18
2013-2-20,60.8,46.7,35.8,41.7,35.4,29.4,85,67,31,30.09,29.85,18,6,0,0.00
2013-2-21,60.6,49.4,39.4,40.4,34.4,26.9,87,60,28,30.19,30.07,21,6,0,0.00
2013-2-22,61.0,48.6,38.3,47.8,39.7,32.1,79,72,55,30.27,30.19,12,6,0,0.00
2013-2-23,61.9,51.7,43.7,44.2,37.8,31.6,84,61,34,30.27,30.15,22,6,0,0.00
2013-2-24,63.0,52.5,42.3,45.6,29.3,20.0,70,42,20,30.27,30.15,22,8,0,0.00
2013-2-25,59.4,48.9,38.8,48.3,38.6,30.2,83,68,49,30.29,30.16,14,6,0,0.00
2013-2-26,62.6,50.1,40.8,48.3,40.4,33.0,81,70,46,30.22,30.11,15,5,0,0.00
2013-2-27,67.3,51.3,39.9,46.8,39.1,31.5,84,65,29,30.38,30.21,12,4,0,0.00
2013-2-28,62.6,52.3,44.6,50.7,45.3,39.1,86,77,60,30.46,30.37,9,3,0,0.00